sensor_id;sensor_type;location;lat;lon;timestamp;P1;durP1;ratioP1;P2;durP2;ratioP2
1404;SDS011;697;51.114;6.542;2024-02-21T00:01:26;21.17;;;11.13;;
1404;SDS011;697;51.114;6.542;2024-02-21T00:03:52;20.97;;;10.77;;
1404;SDS011;697;51.114;6.542;2024-02-21T00:06:19;22.97;;;10.80;;
1404;SDS011;697;51.114;6.542;2024-02-21T00:08:46;21.60;;;10.63;;
1404;SDS011;697;51.114;6.542;2024-02-21T00:11:14;17.77;;;10.57;;
1404;SDS011;697;51.114;6.542;2024-02-21T00:13:41;21.30;;;10.90;;
1404;SDS011;697;51.114;6.542;2024-02-21T00:16:08;23.70;;;10.37;;
1404;SDS011;697;51.114;6.542;2024-02-21T00:18:35;20.20;;;11.30;;
1404;SDS011;697;51.114;6.542;2024-02-21T00:21:02;17.87;;;9.80;;
1404;SDS011;697;51.114;6.542;2024-02-21T00:23:29;19.47;;;11.23;;
1404;SDS011;697;51.114;6.542;2024-02-21T00:25:56;24.57;;;11.73;;
1404;SDS011;697;51.114;6.542;2024-02-21T00:28:24;16.77;;;10.40;;
1404;SDS011;697;51.114;6.542;2024-02-21T00:30:51;18.03;;;10.50;;
1404;SDS011;697;51.114;6.542;2024-02-21T00:33:18;25.87;;;11.60;;
1404;SDS011;697;51.114;6.542;2024-02-21T00:35:45;18.63;;;10.80;;
1404;SDS011;697;51.114;6.542;2024-02-21T00:38:12;18.83;;;10.40;;
1404;SDS011;697;51.114;6.542;2024-02-21T00:40:38;24.60;;;10.60;;
1404;SDS011;697;51.114;6.542;2024-02-21T00:43:05;23.83;;;10.77;;
1404;SDS011;697;51.114;6.542;2024-02-21T00:45:33;21.90;;;11.50;;
1404;SDS011;697;51.114;6.542;2024-02-21T00:48:00;24.97;;;11.97;;
1404;SDS011;697;51.114;6.542;2024-02-21T00:50:27;18.83;;;10.37;;
1404;SDS011;697;51.114;6.542;2024-02-21T00:52:54;25.07;;;11.90;;
1404;SDS011;697;51.114;6.542;2024-02-21T00:55:20;16.87;;;10.40;;
1404;SDS011;697;51.114;6.542;2024-02-21T00:57:47;22.83;;;11.23;;
1404;SDS011;697;51.114;6.542;2024-02-21T01:00:14;22.47;;;10.43;;
1404;SDS011;697;51.114;6.542;2024-02-21T01:02:43;19.63;;;10.07;;
1404;SDS011;697;51.114;6.542;2024-02-21T01:05:09;23.80;;;10.27;;
1404;SDS011;697;51.114;6.542;2024-02-21T01:07:36;24.73;;;9.43;;
1404;SDS011;697;51.114;6.542;2024-02-21T01:10:03;24.40;;;11.13;;
1404;SDS011;697;51.114;6.542;2024-02-21T01:12:31;16.07;;;9.97;;
1404;SDS011;697;51.114;6.542;2024-02-21T01:14:58;21.60;;;11.20;;
1404;SDS011;697;51.114;6.542;2024-02-21T01:17:24;21.40;;;10.00;;
1404;SDS011;697;51.114;6.542;2024-02-21T01:19:52;19.80;;;9.67;;
1404;SDS011;697;51.114;6.542;2024-02-21T01:22:19;17.97;;;10.60;;
1404;SDS011;697;51.114;6.542;2024-02-21T01:24:46;23.60;;;10.00;;
1404;SDS011;697;51.114;6.542;2024-02-21T01:27:13;23.33;;;10.10;;
1404;SDS011;697;51.114;6.542;2024-02-21T01:29:39;21.90;;;9.53;;
1404;SDS011;697;51.114;6.542;2024-02-21T01:32:06;19.43;;;10.37;;
1404;SDS011;697;51.114;6.542;2024-02-21T01:34:33;24.23;;;9.63;;
1404;SDS011;697;51.114;6.542;2024-02-21T01:37:01;21.93;;;9.60;;
1404;SDS011;697;51.114;6.542;2024-02-21T01:39:29;22.50;;;9.30;;
1404;SDS011;697;51.114;6.542;2024-02-21T01:41:56;16.40;;;9.33;;
1404;SDS011;697;51.114;6.542;2024-02-21T01:44:23;22.93;;;8.57;;
1404;SDS011;697;51.114;6.542;2024-02-21T01:46:50;16.00;;;9.23;;
1404;SDS011;697;51.114;6.542;2024-02-21T01:49:17;20.00;;;9.30;;
1404;SDS011;697;51.114;6.542;2024-02-21T01:51:44;14.93;;;8.10;;
1404;SDS011;697;51.114;6.542;2024-02-21T01:54:13;19.40;;;9.17;;
1404;SDS011;697;51.114;6.542;2024-02-21T01:56:41;22.23;;;9.90;;
1404;SDS011;697;51.114;6.542;2024-02-21T01:59:08;16.93;;;9.97;;
1404;SDS011;697;51.114;6.542;2024-02-21T02:01:36;20.93;;;10.23;;
1404;SDS011;697;51.114;6.542;2024-02-21T02:04:03;18.53;;;10.87;;
1404;SDS011;697;51.114;6.542;2024-02-21T02:06:30;17.07;;;9.30;;
1404;SDS011;697;51.114;6.542;2024-02-21T02:08:57;17.67;;;9.70;;
1404;SDS011;697;51.114;6.542;2024-02-21T02:11:26;15.83;;;9.00;;
1404;SDS011;697;51.114;6.542;2024-02-21T02:13:53;17.70;;;10.33;;
1404;SDS011;697;51.114;6.542;2024-02-21T02:16:20;15.27;;;9.50;;
1404;SDS011;697;51.114;6.542;2024-02-21T02:18:47;18.13;;;10.20;;
1404;SDS011;697;51.114;6.542;2024-02-21T02:21:15;17.03;;;10.13;;
1404;SDS011;697;51.114;6.542;2024-02-21T02:23:56;19.47;;;10.40;;
1404;SDS011;697;51.114;6.542;2024-02-21T02:26:23;20.93;;;10.33;;
1404;SDS011;697;51.114;6.542;2024-02-21T02:28:50;19.87;;;9.40;;
1404;SDS011;697;51.114;6.542;2024-02-21T02:31:17;14.47;;;9.63;;
1404;SDS011;697;51.114;6.542;2024-02-21T02:33:43;21.63;;;9.10;;
1404;SDS011;697;51.114;6.542;2024-02-21T02:36:10;14.43;;;10.33;;
1404;SDS011;697;51.114;6.542;2024-02-21T02:38:37;16.67;;;8.70;;
1404;SDS011;697;51.114;6.542;2024-02-21T02:41:05;20.80;;;9.27;;
1404;SDS011;697;51.114;6.542;2024-02-21T02:43:32;19.03;;;9.97;;
1404;SDS011;697;51.114;6.542;2024-02-21T02:45:59;18.37;;;9.40;;
1404;SDS011;697;51.114;6.542;2024-02-21T02:48:25;18.53;;;9.60;;
1404;SDS011;697;51.114;6.542;2024-02-21T02:50:52;13.50;;;9.10;;
1404;SDS011;697;51.114;6.542;2024-02-21T02:53:19;20.67;;;9.80;;
1404;SDS011;697;51.114;6.542;2024-02-21T02:55:46;18.50;;;9.17;;
1404;SDS011;697;51.114;6.542;2024-02-21T02:58:14;18.60;;;9.03;;
1404;SDS011;697;51.114;6.542;2024-02-21T03:00:41;14.40;;;8.50;;
1404;SDS011;697;51.114;6.542;2024-02-21T03:03:07;15.87;;;8.50;;
1404;SDS011;697;51.114;6.542;2024-02-21T03:05:34;17.00;;;9.37;;
1404;SDS011;697;51.114;6.542;2024-02-21T03:08:01;13.53;;;8.70;;
1404;SDS011;697;51.114;6.542;2024-02-21T03:10:32;18.83;;;8.57;;
1404;SDS011;697;51.114;6.542;2024-02-21T03:12:58;20.63;;;9.27;;
1404;SDS011;697;51.114;6.542;2024-02-21T03:15:26;15.03;;;8.53;;
1404;SDS011;697;51.114;6.542;2024-02-21T03:17:53;17.67;;;8.20;;
1404;SDS011;697;51.114;6.542;2024-02-21T03:20:20;14.80;;;7.90;;
1404;SDS011;697;51.114;6.542;2024-02-21T03:22:47;21.40;;;9.30;;
1404;SDS011;697;51.114;6.542;2024-02-21T03:25:14;16.30;;;8.23;;
1404;SDS011;697;51.114;6.542;2024-02-21T03:27:40;15.07;;;8.30;;
1404;SDS011;697;51.114;6.542;2024-02-21T03:30:08;16.70;;;8.60;;
1404;SDS011;697;51.114;6.542;2024-02-21T03:32:37;15.97;;;7.83;;
1404;SDS011;697;51.114;6.542;2024-02-21T03:35:04;23.07;;;8.93;;
1404;SDS011;697;51.114;6.542;2024-02-21T03:37:31;16.90;;;8.00;;
1404;SDS011;697;51.114;6.542;2024-02-21T03:39:58;18.50;;;7.93;;
1404;SDS011;697;51.114;6.542;2024-02-21T03:42:25;19.03;;;8.13;;
1404;SDS011;697;51.114;6.542;2024-02-21T03:44:54;11.77;;;7.63;;
1404;SDS011;697;51.114;6.542;2024-02-21T03:47:21;24.67;;;8.90;;
1404;SDS011;697;51.114;6.542;2024-02-21T03:49:49;13.30;;;7.70;;
1404;SDS011;697;51.114;6.542;2024-02-21T03:52:16;18.27;;;8.63;;
1404;SDS011;697;51.114;6.542;2024-02-21T03:54:43;14.77;;;7.77;;
1404;SDS011;697;51.114;6.542;2024-02-21T03:57:09;16.87;;;7.70;;
1404;SDS011;697;51.114;6.542;2024-02-21T03:59:36;19.67;;;8.17;;
1404;SDS011;697;51.114;6.542;2024-02-21T04:02:05;13.60;;;7.30;;
1404;SDS011;697;51.114;6.542;2024-02-21T04:04:33;12.80;;;7.63;;
1404;SDS011;697;51.114;6.542;2024-02-21T04:07:03;11.87;;;7.63;;
1404;SDS011;697;51.114;6.542;2024-02-21T04:09:31;13.63;;;7.10;;
1404;SDS011;697;51.114;6.542;2024-02-21T04:11:58;18.97;;;7.83;;
1404;SDS011;697;51.114;6.542;2024-02-21T04:14:26;18.43;;;7.40;;
1404;SDS011;697;51.114;6.542;2024-02-21T04:16:53;14.80;;;7.87;;
1404;SDS011;697;51.114;6.542;2024-02-21T04:19:20;16.10;;;7.40;;
1404;SDS011;697;51.114;6.542;2024-02-21T04:21:46;18.80;;;8.50;;
1404;SDS011;697;51.114;6.542;2024-02-21T04:24:14;17.63;;;7.50;;
1404;SDS011;697;51.114;6.542;2024-02-21T04:26:41;12.40;;;7.40;;
1404;SDS011;697;51.114;6.542;2024-02-21T04:29:08;18.50;;;8.03;;
1404;SDS011;697;51.114;6.542;2024-02-21T04:31:35;18.03;;;8.43;;
1404;SDS011;697;51.114;6.542;2024-02-21T04:34:02;15.53;;;7.20;;
1404;SDS011;697;51.114;6.542;2024-02-21T04:36:29;19.43;;;6.93;;
1404;SDS011;697;51.114;6.542;2024-02-21T04:38:56;15.37;;;7.00;;
1404;SDS011;697;51.114;6.542;2024-02-21T04:41:24;15.30;;;8.30;;
1404;SDS011;697;51.114;6.542;2024-02-21T04:43:51;22.80;;;9.20;;
1404;SDS011;697;51.114;6.542;2024-02-21T04:46:17;14.00;;;7.77;;
1404;SDS011;697;51.114;6.542;2024-02-21T04:48:45;12.40;;;6.60;;
1404;SDS011;697;51.114;6.542;2024-02-21T04:51:12;13.50;;;7.77;;
1404;SDS011;697;51.114;6.542;2024-02-21T04:53:39;17.33;;;7.13;;
1404;SDS011;697;51.114;6.542;2024-02-21T04:56:06;17.97;;;7.03;;
1404;SDS011;697;51.114;6.542;2024-02-21T04:58:37;14.23;;;7.23;;
1404;SDS011;697;51.114;6.542;2024-02-21T05:01:04;12.20;;;9.00;;
1404;SDS011;697;51.114;6.542;2024-02-21T05:03:31;16.13;;;7.70;;
1404;SDS011;697;51.114;6.542;2024-02-21T05:05:58;14.30;;;6.70;;
1404;SDS011;697;51.114;6.542;2024-02-21T05:08:25;13.60;;;8.20;;
1404;SDS011;697;51.114;6.542;2024-02-21T05:10:52;17.27;;;7.70;;
1404;SDS011;697;51.114;6.542;2024-02-21T05:13:19;14.17;;;7.33;;
1404;SDS011;697;51.114;6.542;2024-02-21T05:15:48;14.37;;;7.83;;
1404;SDS011;697;51.114;6.542;2024-02-21T05:18:15;14.13;;;7.60;;
1404;SDS011;697;51.114;6.542;2024-02-21T05:20:41;10.00;;;6.17;;
1404;SDS011;697;51.114;6.542;2024-02-21T05:23:08;14.10;;;6.97;;
1404;SDS011;697;51.114;6.542;2024-02-21T05:25:35;15.53;;;8.10;;
1404;SDS011;697;51.114;6.542;2024-02-21T05:28:02;15.23;;;7.17;;
1404;SDS011;697;51.114;6.542;2024-02-21T05:30:31;15.40;;;7.27;;
1404;SDS011;697;51.114;6.542;2024-02-21T05:33:03;14.07;;;9.00;;
1404;SDS011;697;51.114;6.542;2024-02-21T05:35:31;12.27;;;7.80;;
1404;SDS011;697;51.114;6.542;2024-02-21T05:37:58;15.20;;;7.27;;
1404;SDS011;697;51.114;6.542;2024-02-21T05:40:25;18.20;;;7.00;;
1404;SDS011;697;51.114;6.542;2024-02-21T05:42:52;11.80;;;6.73;;
1404;SDS011;697;51.114;6.542;2024-02-21T05:45:19;16.37;;;6.80;;
1404;SDS011;697;51.114;6.542;2024-02-21T05:47:46;12.23;;;6.60;;
1404;SDS011;697;51.114;6.542;2024-02-21T05:50:14;9.80;;;7.27;;
1404;SDS011;697;51.114;6.542;2024-02-21T05:52:41;14.23;;;7.10;;
1404;SDS011;697;51.114;6.542;2024-02-21T05:55:07;16.77;;;7.23;;
1404;SDS011;697;51.114;6.542;2024-02-21T05:57:34;14.97;;;6.50;;
1404;SDS011;697;51.114;6.542;2024-02-21T06:00:03;10.53;;;6.20;;
1404;SDS011;697;51.114;6.542;2024-02-21T06:02:31;10.97;;;6.00;;
1404;SDS011;697;51.114;6.542;2024-02-21T06:04:58;10.23;;;6.50;;
1404;SDS011;697;51.114;6.542;2024-02-21T06:07:26;17.67;;;7.03;;
1404;SDS011;697;51.114;6.542;2024-02-21T06:09:53;14.23;;;5.70;;
1404;SDS011;697;51.114;6.542;2024-02-21T06:12:20;11.70;;;7.00;;
1404;SDS011;697;51.114;6.542;2024-02-21T06:14:46;12.90;;;6.03;;
1404;SDS011;697;51.114;6.542;2024-02-21T06:17:14;12.10;;;6.67;;
1404;SDS011;697;51.114;6.542;2024-02-21T06:22:09;20.20;;;6.50;;
1404;SDS011;697;51.114;6.542;2024-02-21T06:24:37;10.23;;;6.13;;
1404;SDS011;697;51.114;6.542;2024-02-21T06:27:04;9.93;;;5.63;;
1404;SDS011;697;51.114;6.542;2024-02-21T06:29:32;12.00;;;5.50;;
1404;SDS011;697;51.114;6.542;2024-02-21T06:31:59;8.37;;;5.57;;
1404;SDS011;697;51.114;6.542;2024-02-21T06:34:26;14.90;;;6.30;;
1404;SDS011;697;51.114;6.542;2024-02-21T06:36:53;8.40;;;5.30;;
1404;SDS011;697;51.114;6.542;2024-02-21T06:39:19;13.53;;;6.50;;
1404;SDS011;697;51.114;6.542;2024-02-21T06:41:49;8.00;;;5.73;;
1404;SDS011;697;51.114;6.542;2024-02-21T06:44:17;11.27;;;5.40;;
1404;SDS011;697;51.114;6.542;2024-02-21T06:46:44;7.23;;;4.70;;
1404;SDS011;697;51.114;6.542;2024-02-21T06:49:11;12.27;;;5.13;;
1404;SDS011;697;51.114;6.542;2024-02-21T06:51:41;8.37;;;4.60;;
1404;SDS011;697;51.114;6.542;2024-02-21T06:54:07;11.83;;;5.47;;
1404;SDS011;697;51.114;6.542;2024-02-21T06:56:34;9.60;;;4.97;;
1404;SDS011;697;51.114;6.542;2024-02-21T06:59:03;13.23;;;6.17;;
1404;SDS011;697;51.114;6.542;2024-02-21T07:01:30;8.00;;;5.00;;
1404;SDS011;697;51.114;6.542;2024-02-21T07:03:57;11.77;;;5.10;;
1404;SDS011;697;51.114;6.542;2024-02-21T07:06:24;10.63;;;5.20;;
1404;SDS011;697;51.114;6.542;2024-02-21T07:08:51;10.07;;;4.53;;
1404;SDS011;697;51.114;6.542;2024-02-21T07:11:17;7.40;;;4.77;;
1404;SDS011;697;51.114;6.542;2024-02-21T07:13:44;16.97;;;5.40;;
1404;SDS011;697;51.114;6.542;2024-02-21T07:16:12;8.80;;;5.67;;
1404;SDS011;697;51.114;6.542;2024-02-21T07:18:39;11.47;;;5.20;;
1404;SDS011;697;51.114;6.542;2024-02-21T07:21:06;8.17;;;4.87;;
1404;SDS011;697;51.114;6.542;2024-02-21T07:23:32;15.27;;;5.57;;
1404;SDS011;697;51.114;6.542;2024-02-21T07:25:59;13.17;;;5.20;;
1404;SDS011;697;51.114;6.542;2024-02-21T07:28:26;8.77;;;5.20;;
1404;SDS011;697;51.114;6.542;2024-02-21T07:30:53;15.03;;;5.03;;
1404;SDS011;697;51.114;6.542;2024-02-21T07:33:21;12.50;;;4.30;;
1404;SDS011;697;51.114;6.542;2024-02-21T07:35:48;14.40;;;5.00;;
1404;SDS011;697;51.114;6.542;2024-02-21T07:38:15;8.63;;;4.20;;
1404;SDS011;697;51.114;6.542;2024-02-21T07:40:44;14.50;;;4.70;;
1404;SDS011;697;51.114;6.542;2024-02-21T07:43:10;11.07;;;5.60;;
1404;SDS011;697;51.114;6.542;2024-02-21T07:45:37;9.80;;;4.60;;
1404;SDS011;697;51.114;6.542;2024-02-21T07:48:04;8.77;;;4.30;;
1404;SDS011;697;51.114;6.542;2024-02-21T07:50:33;16.87;;;4.50;;
1404;SDS011;697;51.114;6.542;2024-02-21T07:53:00;13.63;;;5.60;;
1404;SDS011;697;51.114;6.542;2024-02-21T07:55:27;14.40;;;6.93;;
1404;SDS011;697;51.114;6.542;2024-02-21T07:57:54;13.13;;;5.70;;
1404;SDS011;697;51.114;6.542;2024-02-21T08:00:21;12.43;;;4.93;;
1404;SDS011;697;51.114;6.542;2024-02-21T08:02:48;17.53;;;6.00;;
1404;SDS011;697;51.114;6.542;2024-02-21T08:05:15;17.20;;;6.13;;
1404;SDS011;697;51.114;6.542;2024-02-21T08:07:43;9.93;;;5.37;;
1404;SDS011;697;51.114;6.542;2024-02-21T08:10:10;11.07;;;6.77;;
1404;SDS011;697;51.114;6.542;2024-02-21T08:12:37;9.70;;;5.53;;
1404;SDS011;697;51.114;6.542;2024-02-21T08:15:05;15.40;;;7.20;;
1404;SDS011;697;51.114;6.542;2024-02-21T08:17:33;12.83;;;6.07;;
1404;SDS011;697;51.114;6.542;2024-02-21T08:20:00;12.70;;;5.10;;
1404;SDS011;697;51.114;6.542;2024-02-21T08:22:27;12.77;;;5.97;;
1404;SDS011;697;51.114;6.542;2024-02-21T08:24:55;8.73;;;5.00;;
1404;SDS011;697;51.114;6.542;2024-02-21T08:27:22;10.60;;;4.63;;
1404;SDS011;697;51.114;6.542;2024-02-21T08:29:48;9.23;;;4.63;;
1404;SDS011;697;51.114;6.542;2024-02-21T08:32:15;8.73;;;5.47;;
1404;SDS011;697;51.114;6.542;2024-02-21T08:34:42;14.93;;;5.00;;
1404;SDS011;697;51.114;6.542;2024-02-21T08:37:09;13.13;;;4.73;;
1404;SDS011;697;51.114;6.542;2024-02-21T08:39:36;15.67;;;4.57;;
1404;SDS011;697;51.114;6.542;2024-02-21T08:42:05;7.13;;;3.93;;
1404;SDS011;697;51.114;6.542;2024-02-21T08:44:32;5.63;;;3.83;;
1404;SDS011;697;51.114;6.542;2024-02-21T08:46:59;8.43;;;4.63;;
1404;SDS011;697;51.114;6.542;2024-02-21T08:49:28;6.00;;;4.40;;
1404;SDS011;697;51.114;6.542;2024-02-21T08:51:56;9.27;;;4.27;;
1404;SDS011;697;51.114;6.542;2024-02-21T08:54:23;11.93;;;4.87;;
1404;SDS011;697;51.114;6.542;2024-02-21T08:56:49;9.87;;;4.57;;
1404;SDS011;697;51.114;6.542;2024-02-21T08:59:17;16.13;;;5.00;;
1404;SDS011;697;51.114;6.542;2024-02-21T09:01:45;8.20;;;4.30;;
1404;SDS011;697;51.114;6.542;2024-02-21T09:04:12;11.23;;;4.50;;
1404;SDS011;697;51.114;6.542;2024-02-21T09:06:39;7.43;;;4.20;;
1404;SDS011;697;51.114;6.542;2024-02-21T09:09:07;8.00;;;3.80;;
1404;SDS011;697;51.114;6.542;2024-02-21T09:11:35;7.40;;;3.80;;
1404;SDS011;697;51.114;6.542;2024-02-21T09:14:02;8.57;;;4.37;;
1404;SDS011;697;51.114;6.542;2024-02-21T09:16:30;9.43;;;3.87;;
1404;SDS011;697;51.114;6.542;2024-02-21T09:18:58;9.03;;;4.50;;
1404;SDS011;697;51.114;6.542;2024-02-21T09:21:25;9.90;;;4.27;;
1404;SDS011;697;51.114;6.542;2024-02-21T09:23:53;25.43;;;5.13;;
1404;SDS011;697;51.114;6.542;2024-02-21T09:26:20;9.60;;;3.77;;
1404;SDS011;697;51.114;6.542;2024-02-21T09:28:46;5.83;;;3.67;;
1404;SDS011;697;51.114;6.542;2024-02-21T09:31:13;8.97;;;3.60;;
1404;SDS011;697;51.114;6.542;2024-02-21T09:33:41;7.30;;;3.17;;
1404;SDS011;697;51.114;6.542;2024-02-21T09:36:08;8.60;;;3.13;;
1404;SDS011;697;51.114;6.542;2024-02-21T09:38:35;9.73;;;3.73;;
1404;SDS011;697;51.114;6.542;2024-02-21T09:41:04;10.10;;;3.60;;
1404;SDS011;697;51.114;6.542;2024-02-21T09:43:37;9.20;;;3.43;;
1404;SDS011;697;51.114;6.542;2024-02-21T09:46:07;7.97;;;3.70;;
1404;SDS011;697;51.114;6.542;2024-02-21T09:48:42;7.33;;;3.30;;
1404;SDS011;697;51.114;6.542;2024-02-21T09:51:24;8.00;;;3.20;;
1404;SDS011;697;51.114;6.542;2024-02-21T09:53:53;9.33;;;3.07;;
1404;SDS011;697;51.114;6.542;2024-02-21T09:56:21;9.07;;;4.20;;
1404;SDS011;697;51.114;6.542;2024-02-21T09:58:48;9.00;;;3.10;;
1404;SDS011;697;51.114;6.542;2024-02-21T10:01:15;8.00;;;3.37;;
1404;SDS011;697;51.114;6.542;2024-02-21T10:03:43;4.50;;;3.00;;
1404;SDS011;697;51.114;6.542;2024-02-21T10:06:09;6.30;;;3.10;;
1404;SDS011;697;51.114;6.542;2024-02-21T10:08:36;4.90;;;3.07;;
1404;SDS011;697;51.114;6.542;2024-02-21T10:11:03;6.77;;;3.30;;
1404;SDS011;697;51.114;6.542;2024-02-21T10:13:30;6.53;;;3.33;;
1404;SDS011;697;51.114;6.542;2024-02-21T10:16:00;6.83;;;3.40;;
1404;SDS011;697;51.114;6.542;2024-02-21T10:18:28;5.30;;;3.30;;
1404;SDS011;697;51.114;6.542;2024-02-21T10:21:06;5.20;;;3.23;;
1404;SDS011;697;51.114;6.542;2024-02-21T10:23:43;6.10;;;2.90;;
1404;SDS011;697;51.114;6.542;2024-02-21T10:26:10;7.50;;;3.77;;
1404;SDS011;697;51.114;6.542;2024-02-21T10:28:37;8.73;;;3.33;;
1404;SDS011;697;51.114;6.542;2024-02-21T10:31:07;7.63;;;2.60;;
1404;SDS011;697;51.114;6.542;2024-02-21T10:33:34;8.47;;;2.90;;
1404;SDS011;697;51.114;6.542;2024-02-21T10:36:12;8.40;;;3.40;;
1404;SDS011;697;51.114;6.542;2024-02-21T10:38:39;6.13;;;2.90;;
1404;SDS011;697;51.114;6.542;2024-02-21T10:41:06;5.93;;;2.80;;
1404;SDS011;697;51.114;6.542;2024-02-21T10:43:37;10.73;;;3.10;;
1404;SDS011;697;51.114;6.542;2024-02-21T10:46:06;4.27;;;2.80;;
1404;SDS011;697;51.114;6.542;2024-02-21T10:48:38;8.37;;;3.30;;
1404;SDS011;697;51.114;6.542;2024-02-21T10:51:17;5.33;;;3.23;;
1404;SDS011;697;51.114;6.542;2024-02-21T10:53:45;5.70;;;3.17;;
1404;SDS011;697;51.114;6.542;2024-02-21T10:56:25;2.97;;;2.53;;
1404;SDS011;697;51.114;6.542;2024-02-21T10:58:54;5.67;;;2.73;;
1404;SDS011;697;51.114;6.542;2024-02-21T11:01:23;11.97;;;4.67;;
1404;SDS011;697;51.114;6.542;2024-02-21T11:03:52;8.03;;;3.33;;
1404;SDS011;697;51.114;6.542;2024-02-21T11:06:22;4.53;;;2.60;;
1404;SDS011;697;51.114;6.542;2024-02-21T11:08:59;7.90;;;3.30;;
1404;SDS011;697;51.114;6.542;2024-02-21T11:11:27;6.43;;;2.13;;
1404;SDS011;697;51.114;6.542;2024-02-21T11:14:03;5.73;;;2.93;;
1404;SDS011;697;51.114;6.542;2024-02-21T11:16:34;4.27;;;2.50;;
1404;SDS011;697;51.114;6.542;2024-02-21T11:19:06;8.37;;;3.10;;
1404;SDS011;697;51.114;6.542;2024-02-21T11:21:36;6.37;;;2.60;;
1404;SDS011;697;51.114;6.542;2024-02-21T11:24:03;5.70;;;3.90;;
1404;SDS011;697;51.114;6.542;2024-02-21T11:26:31;5.90;;;3.20;;
1404;SDS011;697;51.114;6.542;2024-02-21T11:28:58;8.00;;;4.10;;
1404;SDS011;697;51.114;6.542;2024-02-21T11:31:26;6.27;;;3.00;;
1404;SDS011;697;51.114;6.542;2024-02-21T11:33:53;6.73;;;2.97;;
1404;SDS011;697;51.114;6.542;2024-02-21T11:36:26;7.30;;;3.17;;
1404;SDS011;697;51.114;6.542;2024-02-21T11:38:55;5.80;;;3.17;;
1404;SDS011;697;51.114;6.542;2024-02-21T11:41:30;7.93;;;3.80;;
1404;SDS011;697;51.114;6.542;2024-02-21T11:43:57;7.90;;;3.30;;
1404;SDS011;697;51.114;6.542;2024-02-21T11:46:24;6.80;;;3.20;;
1404;SDS011;697;51.114;6.542;2024-02-21T11:48:51;8.37;;;3.80;;
1404;SDS011;697;51.114;6.542;2024-02-21T11:51:24;9.17;;;3.90;;
1404;SDS011;697;51.114;6.542;2024-02-21T11:53:51;9.37;;;3.60;;
1404;SDS011;697;51.114;6.542;2024-02-21T11:56:20;5.10;;;3.17;;
1404;SDS011;697;51.114;6.542;2024-02-21T11:58:47;5.83;;;3.00;;
1404;SDS011;697;51.114;6.542;2024-02-21T12:01:15;7.93;;;3.20;;
1404;SDS011;697;51.114;6.542;2024-02-21T12:03:42;5.87;;;3.33;;
1404;SDS011;697;51.114;6.542;2024-02-21T12:06:15;5.80;;;3.40;;
1404;SDS011;697;51.114;6.542;2024-02-21T12:08:44;8.23;;;4.13;;
1404;SDS011;697;51.114;6.542;2024-02-21T12:11:21;7.17;;;3.40;;
1404;SDS011;697;51.114;6.542;2024-02-21T12:13:58;7.60;;;3.13;;
1404;SDS011;697;51.114;6.542;2024-02-21T12:16:26;6.60;;;2.73;;
1404;SDS011;697;51.114;6.542;2024-02-21T12:18:55;4.87;;;2.60;;
1404;SDS011;697;51.114;6.542;2024-02-21T12:21:23;6.10;;;3.13;;
1404;SDS011;697;51.114;6.542;2024-02-21T12:23:53;11.80;;;3.23;;
1404;SDS011;697;51.114;6.542;2024-02-21T12:26:19;6.50;;;3.00;;
1404;SDS011;697;51.114;6.542;2024-02-21T12:28:48;5.67;;;2.83;;
1404;SDS011;697;51.114;6.542;2024-02-21T12:31:15;9.37;;;3.37;;
1404;SDS011;697;51.114;6.542;2024-02-21T12:33:42;7.67;;;3.13;;
1404;SDS011;697;51.114;6.542;2024-02-21T12:36:09;7.40;;;2.50;;
1404;SDS011;697;51.114;6.542;2024-02-21T12:38:36;10.63;;;3.03;;
1404;SDS011;697;51.114;6.542;2024-02-21T12:41:03;5.07;;;2.90;;
1404;SDS011;697;51.114;6.542;2024-02-21T12:43:31;3.90;;;2.90;;
1404;SDS011;697;51.114;6.542;2024-02-21T12:45:59;5.53;;;2.70;;
1404;SDS011;697;51.114;6.542;2024-02-21T12:48:26;6.77;;;3.27;;
1404;SDS011;697;51.114;6.542;2024-02-21T12:50:53;4.80;;;2.70;;
1404;SDS011;697;51.114;6.542;2024-02-21T12:53:20;5.80;;;2.70;;
1404;SDS011;697;51.114;6.542;2024-02-21T12:55:48;6.63;;;2.60;;
1404;SDS011;697;51.114;6.542;2024-02-21T12:58:15;5.50;;;3.50;;
1404;SDS011;697;51.114;6.542;2024-02-21T13:00:43;4.77;;;3.30;;
1404;SDS011;697;51.114;6.542;2024-02-21T13:03:10;8.07;;;3.00;;
1404;SDS011;697;51.114;6.542;2024-02-21T13:05:37;6.13;;;3.27;;
1404;SDS011;697;51.114;6.542;2024-02-21T13:08:04;6.60;;;3.10;;
1404;SDS011;697;51.114;6.542;2024-02-21T13:10:31;5.13;;;2.80;;
1404;SDS011;697;51.114;6.542;2024-02-21T13:12:59;6.37;;;3.93;;
1404;SDS011;697;51.114;6.542;2024-02-21T13:15:26;5.63;;;2.90;;
1404;SDS011;697;51.114;6.542;2024-02-21T13:17:55;6.20;;;3.20;;
1404;SDS011;697;51.114;6.542;2024-02-21T13:20:22;7.70;;;2.80;;
1404;SDS011;697;51.114;6.542;2024-02-21T13:22:49;11.17;;;4.07;;
1404;SDS011;697;51.114;6.542;2024-02-21T13:25:15;4.70;;;2.73;;
1404;SDS011;697;51.114;6.542;2024-02-21T13:27:45;5.20;;;3.03;;
1404;SDS011;697;51.114;6.542;2024-02-21T13:30:12;6.73;;;2.80;;
1404;SDS011;697;51.114;6.542;2024-02-21T13:32:40;7.40;;;3.17;;
1404;SDS011;697;51.114;6.542;2024-02-21T13:35:09;5.20;;;2.87;;
1404;SDS011;697;51.114;6.542;2024-02-21T13:37:37;3.90;;;2.77;;
1404;SDS011;697;51.114;6.542;2024-02-21T13:40:04;5.63;;;3.17;;
1404;SDS011;697;51.114;6.542;2024-02-21T13:42:34;7.87;;;3.70;;
1404;SDS011;697;51.114;6.542;2024-02-21T13:45:00;7.67;;;3.13;;
1404;SDS011;697;51.114;6.542;2024-02-21T13:47:28;5.50;;;2.80;;
1404;SDS011;697;51.114;6.542;2024-02-21T13:49:55;6.30;;;3.00;;
1404;SDS011;697;51.114;6.542;2024-02-21T13:52:23;6.67;;;2.63;;
1404;SDS011;697;51.114;6.542;2024-02-21T13:54:51;6.67;;;3.20;;
1404;SDS011;697;51.114;6.542;2024-02-21T13:57:18;8.77;;;3.23;;
1404;SDS011;697;51.114;6.542;2024-02-21T13:59:45;5.83;;;2.83;;
1404;SDS011;697;51.114;6.542;2024-02-21T14:02:12;4.40;;;2.40;;
1404;SDS011;697;51.114;6.542;2024-02-21T14:04:38;6.30;;;3.70;;
1404;SDS011;697;51.114;6.542;2024-02-21T14:07:05;8.33;;;3.40;;
1404;SDS011;697;51.114;6.542;2024-02-21T14:09:34;8.13;;;2.83;;
1404;SDS011;697;51.114;6.542;2024-02-21T14:12:01;6.77;;;3.10;;
1404;SDS011;697;51.114;6.542;2024-02-21T14:14:33;8.07;;;2.90;;
1404;SDS011;697;51.114;6.542;2024-02-21T14:17:00;6.73;;;2.40;;
1404;SDS011;697;51.114;6.542;2024-02-21T14:19:26;7.03;;;2.77;;
1404;SDS011;697;51.114;6.542;2024-02-21T14:21:53;6.90;;;2.97;;
1404;SDS011;697;51.114;6.542;2024-02-21T14:24:20;11.80;;;3.30;;
1404;SDS011;697;51.114;6.542;2024-02-21T14:26:48;7.80;;;3.13;;
1404;SDS011;697;51.114;6.542;2024-02-21T14:29:15;9.00;;;3.17;;
1404;SDS011;697;51.114;6.542;2024-02-21T14:31:43;8.70;;;3.93;;
1404;SDS011;697;51.114;6.542;2024-02-21T14:34:09;2.90;;;2.43;;
1404;SDS011;697;51.114;6.542;2024-02-21T14:36:36;9.50;;;3.23;;
1404;SDS011;697;51.114;6.542;2024-02-21T14:39:03;4.97;;;2.80;;
1404;SDS011;697;51.114;6.542;2024-02-21T14:41:30;6.03;;;2.93;;
1404;SDS011;697;51.114;6.542;2024-02-21T14:43:58;10.70;;;4.63;;
1404;SDS011;697;51.114;6.542;2024-02-21T14:46:26;8.17;;;4.13;;
1404;SDS011;697;51.114;6.542;2024-02-21T14:48:54;6.27;;;3.30;;
1404;SDS011;697;51.114;6.542;2024-02-21T14:51:20;5.20;;;2.73;;
1404;SDS011;697;51.114;6.542;2024-02-21T14:53:47;8.80;;;4.67;;
1404;SDS011;697;51.114;6.542;2024-02-21T14:56:14;7.53;;;3.00;;
1404;SDS011;697;51.114;6.542;2024-02-21T14:58:42;5.83;;;3.13;;
1404;SDS011;697;51.114;6.542;2024-02-21T15:01:10;6.70;;;2.80;;
1404;SDS011;697;51.114;6.542;2024-02-21T15:03:38;19.43;;;3.67;;
1404;SDS011;697;51.114;6.542;2024-02-21T15:06:05;5.70;;;3.03;;
1404;SDS011;697;51.114;6.542;2024-02-21T15:08:32;6.72;;;3.10;;
1404;SDS011;697;51.114;6.542;2024-02-21T15:10:59;7.60;;;3.30;;
1404;SDS011;697;51.114;6.542;2024-02-21T15:13:26;8.70;;;2.77;;
1404;SDS011;697;51.114;6.542;2024-02-21T15:15:52;15.63;;;3.10;;
1404;SDS011;697;51.114;6.542;2024-02-21T15:18:20;4.60;;;2.53;;
1404;SDS011;697;51.114;6.542;2024-02-21T15:20:47;6.03;;;2.23;;
1404;SDS011;697;51.114;6.542;2024-02-21T15:23:14;4.03;;;2.40;;
1404;SDS011;697;51.114;6.542;2024-02-21T15:25:42;9.80;;;2.27;;